Time;durP1;ratioP1;P1;durP2;ratioP2;P2;SDS_P1;SDS_P2;PMS_P1;PMS_P2;Temp;Humidity;BMP_temperature;BMP_pressure;BME280_temperature;BME280_humidity;BME280_pressure;Samples;Min_cycle;Max_cycle;Signal;HPM_P1;HPM_P2
2023/10/23 00:02:19;;;;;;;4.43;1.92;;;12.20;99.90;;;;;;5037057;28;20108;-54
2023/10/23 00:04:45;;;;;;;4.53;2.08;;;12.10;99.90;;;;;;5037520;28;20075;-52
2023/10/23 00:07:11;;;;;;;5.68;2.13;;;12.10;99.90;;;;;;5019323;28;20037;-50
2023/10/23 00:09:37;;;;;;;5.22;2.50;;;12.10;99.90;;;;;;5036158;28;20032;-51
2023/10/23 00:12:03;;;;;;;5.00;2.30;;;12.20;99.90;;;;;;5036726;28;20375;-51
2023/10/23 00:14:28;;;;;;;2.80;1.60;;;12.30;99.90;;;;;;5036398;28;20033;-51
2023/10/23 00:16:54;;;;;;;5.47;1.70;;;12.30;99.90;;;;;;5035865;28;20095;-53
2023/10/23 00:19:21;;;;;;;6.80;1.58;;;12.30;99.90;;;;;;5036329;28;20056;-53
2023/10/23 00:21:47;;;;;;;2.58;1.42;;;12.20;99.90;;;;;;5036825;28;20040;-54
2023/10/23 00:24:12;;;;;;;3.20;1.48;;;12.20;99.90;;;;;;5036224;28;20205;-52
2023/10/23 00:26:38;;;;;;;2.35;1.50;;;12.10;99.90;;;;;;5018354;28;20386;-55
2023/10/23 00:29:03;;;;;;;4.10;1.65;;;12.00;99.90;;;;;;5036189;28;20029;-52
2023/10/23 00:31:29;;;;;;;5.80;1.48;;;12.00;99.90;;;;;;5036340;28;20203;-50
2023/10/23 00:33:55;;;;;;;4.45;1.50;;;11.90;99.90;;;;;;5036330;28;20030;-52
2023/10/23 00:36:21;;;;;;;4.15;1.40;;;11.80;99.90;;;;;;5018762;28;20033;-54
2023/10/23 00:38:46;;;;;;;4.80;1.33;;;11.70;99.90;;;;;;5018767;28;20029;-53
2023/10/23 00:41:12;;;;;;;5.05;1.85;;;11.60;99.90;;;;;;5019172;28;20025;-52
2023/10/23 00:43:38;;;;;;;3.25;1.48;;;11.60;99.90;;;;;;5036310;28;20105;-53
2023/10/23 00:46:25;;;;;;;3.67;1.40;;;11.50;99.90;;;;;;5036131;28;20040;-53
2023/10/23 00:48:52;;;;;;;3.03;1.42;;;11.50;99.90;;;;;;5035676;28;20033;-52
2023/10/23 00:51:19;;;;;;;3.72;1.10;;;11.50;99.90;;;;;;5036083;28;20171;-54
2023/10/23 00:53:46;;;;;;;4.97;1.30;;;11.50;99.90;;;;;;5017732;28;20029;-51
2023/10/23 00:56:13;;;;;;;3.67;1.40;;;11.40;99.90;;;;;;5018025;28;20501;-53
2023/10/23 00:58:44;;;;;;;2.87;1.30;;;11.40;99.90;;;;;;5035928;28;20028;-54
2023/10/23 01:01:14;;;;;;;3.03;1.40;;;11.30;99.90;;;;;;5036381;28;20085;-54
2023/10/23 01:03:40;;;;;;;3.05;1.95;;;11.20;99.90;;;;;;5017635;28;20129;-54
2023/10/23 01:06:06;;;;;;;2.80;1.20;;;11.10;99.90;;;;;;5001947;28;20057;-53
2023/10/23 01:08:33;;;;;;;3.70;1.20;;;11.00;99.90;;;;;;5018384;28;20029;-54
2023/10/23 01:10:59;;;;;;;5.13;1.50;;;11.10;99.90;;;;;;5018282;28;20417;-54
2023/10/23 01:13:26;;;;;;;4.33;1.47;;;11.00;99.90;;;;;;5018061;28;20132;-55
2023/10/23 01:15:52;;;;;;;6.00;1.63;;;11.00;99.90;;;;;;5035227;28;20044;-53
2023/10/23 01:18:18;;;;;;;4.20;1.70;;;10.90;99.90;;;;;;5017651;28;20033;-51
2023/10/23 01:20:44;;;;;;;5.87;1.50;;;10.90;99.90;;;;;;5018105;28;20078;-54
2023/10/23 01:23:10;;;;;;;3.03;1.47;;;11.00;99.90;;;;;;5018463;28;20060;-54
2023/10/23 01:25:36;;;;;;;3.43;1.40;;;11.00;99.90;;;;;;5018357;28;20433;-53
2023/10/23 01:28:02;;;;;;;2.80;1.60;;;11.00;99.90;;;;;;5018858;28;20128;-54
2023/10/23 01:30:28;;;;;;;2.30;1.40;;;10.90;99.90;;;;;;5036135;28;20038;-54
2023/10/23 01:32:54;;;;;;;1.83;1.20;;;10.90;99.90;;;;;;5018757;28;20038;-52
2023/10/23 01:35:20;;;;;;;2.67;1.23;;;10.90;99.90;;;;;;5035517;28;20057;-51
2023/10/23 01:37:47;;;;;;;6.33;1.93;;;11.00;99.90;;;;;;5018473;28;20432;-52
2023/10/23 01:40:13;;;;;;;3.50;1.33;;;10.90;99.90;;;;;;5018112;28;20080;-51
2023/10/23 01:42:42;;;;;;;4.20;1.67;;;10.90;99.90;;;;;;5036351;28;20039;-53
2023/10/23 01:45:08;;;;;;;3.60;1.90;;;10.80;99.90;;;;;;5036650;28;20053;-52
2023/10/23 01:47:35;;;;;;;3.70;1.53;;;10.80;99.90;;;;;;5018522;28;20025;-52
2023/10/23 01:50:01;;;;;;;6.63;1.70;;;10.80;99.90;;;;;;5017884;28;20036;-52
2023/10/23 01:52:27;;;;;;;1.60;1.17;;;10.80;99.90;;;;;;5018107;28;20491;-54
2023/10/23 01:54:53;;;;;;;3.50;1.50;;;10.70;99.90;;;;;;5018311;28;20064;-53
2023/10/23 01:57:19;;;;;;;2.93;1.57;;;10.70;99.90;;;;;;5018517;28;20048;-53
2023/10/23 01:59:45;;;;;;;3.80;1.40;;;10.60;99.90;;;;;;5017784;28;20328;-51
2023/10/23 02:02:11;;;;;;;2.77;1.40;;;10.50;99.90;;;;;;5017792;28;20040;-54
2023/10/23 02:04:39;;;;;;;2.07;1.33;;;10.40;99.90;;;;;;5035187;28;20026;-52
2023/10/23 02:07:05;;;;;;;5.57;1.57;;;10.30;99.90;;;;;;5017656;28;20310;-53
2023/10/23 02:09:31;;;;;;;6.77;1.70;;;10.10;99.90;;;;;;5020463;28;20044;-54
2023/10/23 02:11:57;;;;;;;5.63;1.60;;;10.10;99.90;;;;;;5021416;28;20493;-54
2023/10/23 02:14:23;;;;;;;3.30;1.60;;;10.00;99.90;;;;;;5039359;28;20029;-53
2023/10/23 02:16:48;;;;;;;3.67;1.40;;;10.00;99.90;;;;;;5038874;28;20045;-54
2023/10/23 02:19:14;;;;;;;2.73;1.50;;;10.00;99.90;;;;;;5020842;28;20029;-51
2023/10/23 02:21:40;;;;;;;5.27;1.73;;;10.10;99.90;;;;;;5022093;28;20025;-52
2023/10/23 02:24:05;;;;;;;4.53;1.60;;;10.10;99.90;;;;;;5038448;28;20084;-53
2023/10/23 02:26:31;;;;;;;3.50;1.43;;;10.20;99.90;;;;;;5038446;28;20075;-52
2023/10/23 02:28:58;;;;;;;1.80;1.20;;;10.20;99.90;;;;;;5021026;28;20036;-53
2023/10/23 02:31:23;;;;;;;4.97;1.57;;;10.10;99.90;;;;;;5021226;28;20097;-52
2023/10/23 02:33:49;;;;;;;4.13;1.53;;;10.10;99.90;;;;;;5038949;28;20076;-51
2023/10/23 02:36:15;;;;;;;3.93;1.50;;;10.10;99.90;;;;;;5020756;28;20490;-51
2023/10/23 02:38:42;;;;;;;3.60;1.67;;;10.10;99.90;;;;;;5020980;28;20022;-52
2023/10/23 02:41:07;;;;;;;4.17;1.80;;;10.00;99.90;;;;;;5038602;28;20029;-50
2023/10/23 02:43:33;;;;;;;6.93;1.60;;;10.00;99.90;;;;;;5021139;28;20034;-51
2023/10/23 02:46:04;;;;;;;4.23;1.70;;;9.90;99.90;;;;;;5020294;28;20112;-52
2023/10/23 02:48:30;;;;;;;4.33;1.70;;;9.90;99.90;;;;;;5020796;28;20041;-54
2023/10/23 02:50:57;;;;;;;4.63;1.47;;;9.90;99.90;;;;;;5038491;28;20037;-52
2023/10/23 02:53:23;;;;;;;3.37;1.60;;;9.90;99.90;;;;;;5020689;28;20500;-51
2023/10/23 02:55:49;;;;;;;2.80;1.37;;;10.00;99.90;;;;;;5020520;28;20067;-55
2023/10/23 02:58:16;;;;;;;5.33;1.60;;;10.00;99.90;;;;;;5018391;28;20120;-54
2023/10/23 03:00:42;;;;;;;3.30;1.50;;;10.00;99.90;;;;;;5019731;28;20105;-54
2023/10/23 03:03:09;;;;;;;4.43;1.57;;;10.00;99.90;;;;;;5037137;28;20081;-54
2023/10/23 03:05:34;;;;;;;6.47;1.90;;;10.00;99.90;;;;;;5037407;28;20038;-50
2023/10/23 03:08:00;;;;;;;3.83;1.80;;;10.00;99.90;;;;;;5020010;28;20039;-54
2023/10/23 03:10:26;;;;;;;3.23;1.80;;;10.10;99.90;;;;;;5019203;28;20123;-54
2023/10/23 03:12:52;;;;;;;2.27;1.17;;;10.00;99.90;;;;;;5020184;28;20095;-50
2023/10/23 03:15:18;;;;;;;7.97;2.37;;;10.00;99.90;;;;;;5019730;28;20075;-53
2023/10/23 03:17:43;;;;;;;3.67;1.80;;;10.00;99.90;;;;;;5019979;28;20029;-55
2023/10/23 03:20:11;;;;;;;3.23;1.70;;;10.00;99.90;;;;;;5019574;28;20037;-53
2023/10/23 03:22:37;;;;;;;3.80;1.63;;;10.00;99.90;;;;;;5019856;28;20036;-54
2023/10/23 03:25:04;;;;;;;7.40;2.50;;;10.00;99.90;;;;;;5020270;28;20041;-55
2023/10/23 03:27:30;;;;;;;5.70;2.07;;;10.00;99.90;;;;;;5020329;28;20033;-52
2023/10/23 03:29:56;;;;;;;6.33;2.50;;;10.00;99.90;;;;;;5037594;28;20041;-55
2023/10/23 03:32:21;;;;;;;4.93;2.23;;;10.00;99.90;;;;;;5019677;28;20037;-55
2023/10/23 03:34:47;;;;;;;4.20;2.03;;;10.00;99.90;;;;;;5036646;28;20029;-55
2023/10/23 03:37:12;;;;;;;5.23;2.30;;;10.00;99.90;;;;;;5003225;28;20034;-53
2023/10/23 03:39:38;;;;;;;6.13;2.07;;;10.00;99.90;;;;;;5019155;28;20033;-54
2023/10/23 03:42:04;;;;;;;4.37;2.00;;;10.00;99.90;;;;;;5036358;28;20075;-54
2023/10/23 03:44:31;;;;;;;4.63;2.20;;;9.90;99.90;;;;;;5019008;28;20056;-54
2023/10/23 03:46:57;;;;;;;3.30;1.67;;;9.90;99.90;;;;;;5018641;28;20485;-53
2023/10/23 03:49:23;;;;;;;6.23;1.90;;;9.90;99.90;;;;;;5001875;28;20067;-55
2023/10/23 03:51:50;;;;;;;3.50;1.90;;;9.90;99.90;;;;;;5019880;28;20040;-52
2023/10/23 03:54:16;;;;;;;7.20;2.23;;;9.90;99.90;;;;;;5037073;28;20033;-54
2023/10/23 03:56:41;;;;;;;4.67;2.10;;;9.80;99.90;;;;;;5019621;28;20107;-53
2023/10/23 03:59:07;;;;;;;6.23;2.03;;;9.90;99.90;;;;;;5037063;28;20100;-53
2023/10/23 04:01:32;;;;;;;6.53;2.10;;;9.90;99.90;;;;;;5037798;28;20103;-53
2023/10/23 04:03:58;;;;;;;4.37;2.07;;;9.90;99.90;;;;;;5036723;28;20049;-54
2023/10/23 04:06:24;;;;;;;6.17;2.47;;;9.90;99.90;;;;;;5037318;28;20037;-55
2023/10/23 04:08:52;;;;;;;3.33;2.00;;;9.90;99.90;;;;;;5036660;28;20113;-52
2023/10/23 04:11:18;;;;;;;3.63;2.15;;;9.90;99.90;;;;;;5036794;28;20116;-54
2023/10/23 04:13:44;;;;;;;4.70;2.27;;;9.90;99.90;;;;;;5019537;28;20087;-54
2023/10/23 04:16:12;;;;;;;4.07;1.90;;;9.90;99.90;;;;;;5018802;28;20050;-53
2023/10/23 04:18:37;;;;;;;3.80;2.00;;;9.90;99.90;;;;;;5036518;28;20441;-50
2023/10/23 04:21:07;;;;;;;5.70;2.20;;;9.80;99.90;;;;;;5037404;28;20057;-53
2023/10/23 04:23:34;;;;;;;5.07;2.70;;;9.80;99.90;;;;;;5019098;28;20018;-52
2023/10/23 04:26:00;;;;;;;5.37;1.90;;;9.80;99.90;;;;;;5035833;28;20112;-51
2023/10/23 04:28:26;;;;;;;6.97;2.40;;;9.80;99.90;;;;;;5019292;28;20568;-52
2023/10/23 04:30:51;;;;;;;7.20;2.07;;;9.80;99.90;;;;;;5036266;28;20487;-53
2023/10/23 04:33:21;;;;;;;3.17;1.63;;;10.00;99.90;;;;;;5036557;28;20030;-54
2023/10/23 04:35:52;;;;;;;4.10;1.90;;;10.00;99.90;;;;;;5037073;28;20040;-54
2023/10/23 04:38:18;;;;;;;9.70;2.20;;;10.00;99.90;;;;;;5036676;28;20473;-53
2023/10/23 04:40:44;;;;;;;4.07;2.37;;;10.10;99.90;;;;;;5036190;28;20033;-53
2023/10/23 04:43:11;;;;;;;4.83;2.43;;;10.00;99.90;;;;;;5036116;28;20056;-54
2023/10/23 04:45:37;;;;;;;4.67;2.20;;;10.00;99.90;;;;;;5017753;28;20034;-54
2023/10/23 04:48:04;;;;;;;6.17;2.70;;;10.00;99.90;;;;;;5018242;28;20033;-53
2023/10/23 04:50:31;;;;;;;4.10;2.03;;;9.90;99.90;;;;;;5035749;28;20067;-55
2023/10/23 04:52:59;;;;;;;4.37;2.23;;;9.90;99.90;;;;;;5035756;28;20037;-55
2023/10/23 04:55:25;;;;;;;4.67;2.47;;;9.80;99.90;;;;;;5035959;28;20133;-54
2023/10/23 04:57:51;;;;;;;5.60;2.43;;;9.80;99.90;;;;;;5035483;28;20025;-53
2023/10/23 05:00:18;;;;;;;3.83;2.17;;;9.80;99.90;;;;;;5035400;28;20074;-55
2023/10/23 05:02:45;;;;;;;5.63;2.57;;;9.70;99.90;;;;;;5034956;28;20030;-55
2023/10/23 05:05:11;;;;;;;5.23;2.37;;;9.60;99.90;;;;;;5017693;28;20037;-53
2023/10/23 05:07:37;;;;;;;8.60;2.97;;;9.60;99.90;;;;;;5017663;28;20029;-55
2023/10/23 05:10:04;;;;;;;6.43;2.40;;;9.60;99.90;;;;;;5035288;28;20037;-54
2023/10/23 05:12:29;;;;;;;5.13;2.50;;;9.60;99.90;;;;;;5035705;28;20037;-54
2023/10/23 05:14:55;;;;;;;4.67;2.80;;;9.60;99.90;;;;;;5035461;28;20040;-55
2023/10/23 05:17:23;;;;;;;7.53;3.33;;;9.50;99.90;;;;;;5035677;28;20044;-52
2023/10/23 05:19:49;;;;;;;7.05;2.83;;;9.50;99.90;;;;;;5017296;28;20068;-54
2023/10/23 05:22:15;;;;;;;7.00;2.70;;;9.40;99.90;;;;;;5034992;28;20026;-54
2023/10/23 05:24:47;;;;;;;5.13;2.60;;;9.40;99.90;;;;;;5018476;28;20094;-54
2023/10/23 05:27:14;;;;;;;6.50;2.60;;;9.30;99.90;;;;;;5018110;28;20040;-52
2023/10/23 05:29:39;;;;;;;9.43;3.20;;;9.40;99.90;;;;;;5017733;28;20033;-54
2023/10/23 05:32:06;;;;;;;6.23;2.60;;;9.40;99.90;;;;;;5036081;28;20044;-53
2023/10/23 05:34:35;;;;;;;6.20;2.93;;;9.40;99.90;;;;;;5035778;28;20517;-52
2023/10/23 05:37:01;;;;;;;5.90;2.63;;;9.50;99.90;;;;;;5035834;28;20039;-55
2023/10/23 05:39:30;;;;;;;6.57;2.73;;;9.50;99.90;;;;;;5017649;28;20033;-52
2023/10/23 05:41:55;;;;;;;6.95;3.03;;;9.40;99.90;;;;;;5035222;28;20503;-55
2023/10/23 05:44:21;;;;;;;7.27;3.23;;;9.30;99.90;;;;;;5038927;28;20025;-55
2023/10/23 05:46:47;;;;;;;6.17;3.13;;;9.30;99.90;;;;;;5022691;28;20029;-53
2023/10/23 05:49:12;;;;;;;5.93;2.47;;;9.40;99.90;;;;;;5021807;28;20401;-56
2023/10/23 05:51:38;;;;;;;7.90;3.30;;;9.30;99.90;;;;;;5039495;28;20030;-56
2023/10/23 05:54:04;;;;;;;7.07;2.77;;;9.30;99.90;;;;;;5021295;28;20033;-53
2023/10/23 05:56:29;;;;;;;6.50;3.13;;;9.20;99.90;;;;;;5021848;28;20040;-55
2023/10/23 05:58:55;;;;;;;5.70;2.83;;;9.20;99.90;;;;;;5021609;28;20121;-56
2023/10/23 06:01:20;;;;;;;7.60;3.20;;;9.20;99.90;;;;;;5039285;28;20029;-56
2023/10/23 06:03:46;;;;;;;5.53;2.67;;;9.20;99.90;;;;;;5021589;28;20140;-53
2023/10/23 06:06:14;;;;;;;7.10;3.00;;;9.10;99.90;;;;;;5038571;28;20060;-54
2023/10/23 06:08:40;;;;;;;5.90;3.10;;;9.10;99.90;;;;;;5021217;28;20034;-54
2023/10/23 06:11:10;;;;;;;5.43;2.70;;;9.00;99.90;;;;;;5039252;28;20122;-55
2023/10/23 06:13:36;;;;;;;5.33;2.40;;;9.10;99.90;;;;;;5039600;28;20040;-51
2023/10/23 06:16:04;;;;;;;8.23;3.00;;;9.10;99.90;;;;;;5039138;28;20398;-54
2023/10/23 06:18:37;;;;;;;5.83;2.53;;;9.00;99.90;;;;;;5021392;28;20117;-54
2023/10/23 06:21:04;;;;;;;9.10;3.30;;;9.00;99.90;;;;;;5039688;28;20065;-52
2023/10/23 06:23:38;;;;;;;7.17;2.90;;;9.10;99.90;;;;;;5039533;28;20530;-55
2023/10/23 06:26:04;;;;;;;8.63;3.20;;;9.10;99.90;;;;;;5038484;28;20034;-56
2023/10/23 06:28:30;;;;;;;5.87;2.73;;;9.30;99.90;;;;;;5038975;28;20030;-54
2023/10/23 06:30:56;;;;;;;5.90;2.60;;;9.30;99.90;;;;;;5038875;28;20044;-55
2023/10/23 06:33:22;;;;;;;5.47;2.77;;;9.40;99.90;;;;;;5038751;28;20116;-54
2023/10/23 06:35:58;;;;;;;5.93;2.60;;;9.30;99.90;;;;;;5038379;28;20076;-56
2023/10/23 06:38:23;;;;;;;8.67;3.60;;;9.30;99.90;;;;;;5020122;28;20036;-55
2023/10/23 06:40:49;;;;;;;5.93;2.33;;;9.30;99.90;;;;;;5038771;28;20045;-55
2023/10/23 06:43:14;;;;;;;6.50;2.97;;;9.40;99.90;;;;;;5021347;28;20021;-52
2023/10/23 06:45:40;;;;;;;5.93;2.93;;;9.50;99.90;;;;;;5039044;28;20036;-55
2023/10/23 06:48:06;;;;;;;9.57;3.23;;;9.50;99.90;;;;;;5038830;28;20106;-56
2023/10/23 06:50:31;;;;;;;6.73;2.37;;;9.60;99.90;;;;;;5038382;28;20062;-55
2023/10/23 06:52:57;;;;;;;7.80;3.13;;;9.70;99.90;;;;;;5038450;28;20034;-55
2023/10/23 06:55:24;;;;;;;7.17;3.03;;;9.70;99.90;;;;;;5037931;28;20030;-52
2023/10/23 06:57:50;;;;;;;8.30;3.40;;;9.70;99.90;;;;;;5038025;28;20112;-53
2023/10/23 07:00:16;;;;;;;8.80;3.03;;;9.70;99.90;;;;;;5020776;28;20057;-54
2023/10/23 07:02:42;;;;;;;5.67;2.50;;;9.70;99.90;;;;;;5038265;28;20113;-55
2023/10/23 07:05:07;;;;;;;4.47;2.40;;;9.70;99.90;;;;;;5020200;28;20040;-53
2023/10/23 07:07:33;;;;;;;5.73;2.63;;;9.80;99.90;;;;;;5038182;28;20096;-54
2023/10/23 07:09:59;;;;;;;6.03;2.23;;;9.80;99.90;;;;;;5038068;28;20040;-54
2023/10/23 07:12:25;;;;;;;8.73;2.73;;;9.90;99.90;;;;;;5037583;28;20375;-54
2023/10/23 07:14:51;;;;;;;6.63;2.80;;;9.80;99.90;;;;;;5038094;28;20055;-55
2023/10/23 07:17:17;;;;;;;8.10;2.47;;;9.90;99.90;;;;;;5037899;28;20534;-53
2023/10/23 07:19:43;;;;;;;7.43;3.27;;;9.90;99.90;;;;;;5037133;28;20441;-55
2023/10/23 07:22:09;;;;;;;7.67;2.50;;;10.00;99.90;;;;;;5037253;28;20032;-52
2023/10/23 07:24:34;;;;;;;5.23;2.50;;;10.10;99.90;;;;;;5038197;28;20033;-56
2023/10/23 07:27:00;;;;;;;6.57;2.77;;;10.30;99.90;;;;;;5037196;28;20033;-54
2023/10/23 07:29:26;;;;;;;4.80;2.50;;;10.30;99.90;;;;;;5046432;28;20040;-52
2023/10/23 07:31:51;;;;;;;8.43;3.03;;;10.50;99.90;;;;;;5028916;28;20040;-52
2023/10/23 07:34:17;;;;;;;9.67;3.50;;;10.60;99.90;;;;;;5028992;28;20030;-52
2023/10/23 07:36:43;;;;;;;12.50;3.77;;;10.70;99.90;;;;;;5046697;28;20113;-52
2023/10/23 07:39:09;;;;;;;9.70;3.20;;;10.80;99.90;;;;;;5045883;28;20033;-53
2023/10/23 07:41:34;;;;;;;8.80;3.60;;;10.90;99.90;;;;;;5040301;28;20075;-55
2023/10/23 07:44:00;;;;;;;7.93;3.10;;;10.90;99.90;;;;;;5017897;28;20517;-51
2023/10/23 07:46:25;;;;;;;4.33;2.13;;;11.00;99.90;;;;;;5018379;28;20048;-55
2023/10/23 07:48:51;;;;;;;6.57;2.33;;;11.10;99.90;;;;;;5035342;28;20072;-56
2023/10/23 07:51:17;;;;;;;5.90;2.70;;;11.10;99.90;;;;;;5035804;28;20110;-54
2023/10/23 07:53:42;;;;;;;8.97;2.47;;;11.10;99.90;;;;;;5035532;28;20039;-52
2023/10/23 07:56:08;;;;;;;4.73;2.23;;;11.10;99.90;;;;;;5017642;28;20073;-51
2023/10/23 07:58:34;;;;;;;8.10;2.80;;;11.20;99.90;;;;;;5034833;28;20608;-54
2023/10/23 08:01:08;;;;;;;6.20;3.20;;;11.30;99.90;;;;;;5035387;28;20021;-55
2023/10/23 08:03:34;;;;;;;4.70;2.30;;;11.40;99.90;;;;;;5035228;28;20132;-55
2023/10/23 08:06:05;;;;;;;12.17;3.03;;;11.40;99.90;;;;;;5016759;28;20053;-55
2023/10/23 08:08:38;;;;;;;8.33;2.27;;;11.60;99.90;;;;;;5000579;28;20566;-55
2023/10/23 08:11:06;;;;;;;5.57;2.80;;;11.60;99.90;;;;;;5034926;28;20100;-55
2023/10/23 08:13:32;;;;;;;6.93;2.37;;;11.70;99.90;;;;;;5034931;28;20061;-55
2023/10/23 08:15:57;;;;;;;8.45;2.42;;;11.80;99.90;;;;;;5034556;28;20465;-55
2023/10/23 08:18:23;;;;;;;5.40;2.20;;;11.90;99.90;;;;;;5034397;28;20021;-54
2023/10/23 08:20:49;;;;;;;4.10;1.88;;;11.90;99.90;;;;;;5034356;28;20549;-55
2023/10/23 08:23:14;;;;;;;6.47;2.40;;;11.90;99.90;;;;;;5034169;28;20026;-55
2023/10/23 08:25:44;;;;;;;6.18;2.05;;;12.00;99.90;;;;;;5034679;28;20120;-54
2023/10/23 08:28:10;;;;;;;3.95;2.03;;;12.10;99.90;;;;;;5033584;28;20038;-54
2023/10/23 08:30:36;;;;;;;5.60;1.77;;;12.20;99.90;;;;;;5036319;28;20045;-53
2023/10/23 08:33:04;;;;;;;5.85;2.25;;;12.20;99.90;;;;;;5021853;28;20040;-52
2023/10/23 08:35:29;;;;;;;4.43;2.63;;;12.30;99.90;;;;;;5034514;28;20180;-54
2023/10/23 08:37:55;;;;;;;6.40;2.08;;;12.40;99.90;;;;;;5034552;28;20053;-52
2023/10/23 08:40:24;;;;;;;11.60;3.67;;;12.60;99.90;;;;;;5037348;28;20514;-52
2023/10/23 08:42:49;;;;;;;6.75;2.40;;;12.70;99.90;;;;;;5019850;28;20087;-53
2023/10/23 08:45:16;;;;;;;6.95;2.05;;;12.80;99.90;;;;;;5036981;28;20030;-54
2023/10/23 08:47:42;;;;;;;5.63;2.30;;;13.00;99.90;;;;;;5037510;28;20033;-55
2023/10/23 08:50:08;;;;;;;2.97;1.75;;;13.10;99.90;;;;;;5036905;28;20038;-54
2023/10/23 08:52:43;;;;;;;4.95;1.50;;;13.20;99.90;;;;;;5036651;28;20116;-54
2023/10/23 08:55:12;;;;;;;2.95;1.52;;;13.20;99.90;;;;;;5036260;28;20147;-53
2023/10/23 08:57:43;;;;;;;4.22;1.55;;;13.20;99.90;;;;;;5018522;28;20025;-55
2023/10/23 09:00:09;;;;;;;2.25;1.58;;;13.30;99.90;;;;;;5035912;28;20478;-53
2023/10/23 09:02:34;;;;;;;5.93;2.25;;;13.40;99.90;;;;;;5036259;28;20108;-54
2023/10/23 09:05:00;;;;;;;4.80;1.67;;;13.50;99.90;;;;;;5035970;28;20131;-54
2023/10/23 09:07:26;;;;;;;2.28;1.15;;;13.50;99.90;;;;;;5035725;28;20033;-55
2023/10/23 09:09:51;;;;;;;6.18;1.40;;;13.60;99.90;;;;;;5035623;28;20060;-54
2023/10/23 09:12:33;;;;;;;4.85;1.48;;;13.80;99.90;;;;;;5035900;28;20112;-54
2023/10/23 09:15:13;;;;;;;4.68;1.63;;;14.00;99.90;;;;;;5035488;28;20034;-53
2023/10/23 09:17:40;;;;;;;3.90;1.58;;;14.10;99.90;;;;;;5038931;28;20022;-53
2023/10/23 09:20:19;;;;;;;2.53;1.40;;;14.30;99.90;;;;;;5043432;28;20025;-53
2023/10/23 09:22:48;;;;;;;2.58;1.25;;;14.40;99.90;;;;;;5042923;28;20037;-54
2023/10/23 09:25:21;;;;;;;1.95;1.10;;;14.50;99.90;;;;;;5042070;28;20033;-55
2023/10/23 09:27:47;;;;;;;2.53;1.13;;;14.90;99.90;;;;;;5042599;28;20029;-55
2023/10/23 09:30:15;;;;;;;5.10;1.88;;;15.30;99.90;;;;;;5042877;28;20056;-54
2023/10/23 09:32:41;;;;;;;6.47;1.40;;;15.90;99.90;;;;;;5042659;28;20040;-55
2023/10/23 09:35:08;;;;;;;5.55;1.40;;;16.60;99.90;;;;;;5042597;28;20034;-55
2023/10/23 09:37:35;;;;;;;3.00;1.17;;;17.30;99.90;;;;;;5043107;28;20030;-55
2023/10/23 09:40:09;;;;;;;5.65;1.10;;;17.80;99.90;;;;;;5042689;28;20048;-55
2023/10/23 09:42:35;;;;;;;3.13;1.10;;;18.10;99.90;;;;;;5025073;28;20060;-53
2023/10/23 09:45:01;;;;;;;4.72;1.20;;;18.30;99.90;;;;;;5042189;28;20043;-56
2023/10/23 09:47:29;;;;;;;5.20;1.08;;;18.60;99.90;;;;;;5024786;28;20096;-55
2023/10/23 09:49:55;;;;;;;3.50;0.80;;;19.10;99.90;;;;;;5042206;28;20025;-55
2023/10/23 09:52:25;;;;;;;5.68;1.00;;;19.00;99.90;;;;;;5042764;28;20110;-53
2023/10/23 09:54:55;;;;;;;1.85;1.02;;;19.00;99.90;;;;;;5023957;28;20534;-53
2023/10/23 09:57:26;;;;;;;5.32;1.17;;;19.10;99.90;;;;;;5042722;28;20159;-55
2023/10/23 09:59:59;;;;;;;3.28;1.30;;;19.40;99.90;;;;;;5042243;28;20025;-55
2023/10/23 10:02:29;;;;;;;3.47;1.10;;;19.00;99.90;;;;;;5043214;28;20029;-53
2023/10/23 10:05:05;;;;;;;3.15;1.00;;;18.80;99.90;;;;;;5042438;28;20041;-52
2023/10/23 10:08:01;;;;;;;3.13;1.48;;;18.40;99.90;;;;;;5042493;28;20112;-53
2023/10/23 10:10:28;;;;;;;2.90;0.95;;;17.90;99.90;;;;;;5025392;28;20056;-53
2023/10/23 10:12:55;;;;;;;3.35;1.23;;;17.50;99.90;;;;;;5042583;28;20037;-55
2023/10/23 10:15:23;;;;;;;2.97;1.20;;;17.20;99.90;;;;;;5041613;28;20021;-53
2023/10/23 10:17:50;;;;;;;5.55;1.65;;;17.00;99.90;;;;;;5042158;28;20421;-55
2023/10/23 10:20:19;;;;;;;4.15;1.27;;;16.90;99.90;;;;;;5042723;28;20029;-54
2023/10/23 10:22:47;;;;;;;4.22;1.23;;;16.80;99.90;;;;;;5042690;28;20048;-55
2023/10/23 10:25:13;;;;;;;3.30;1.20;;;16.70;99.90;;;;;;5042062;28;20025;-53
2023/10/23 10:27:39;;;;;;;3.40;1.30;;;16.60;99.90;;;;;;5041688;28;20116;-55
2023/10/23 10:30:06;;;;;;;3.88;1.17;;;16.50;99.90;;;;;;5038024;28;20457;-55
2023/10/23 10:32:35;;;;;;;4.72;1.17;;;16.50;99.90;;;;;;5038375;28;20240;-55
2023/10/23 10:35:06;;;;;;;4.25;1.30;;;16.50;99.90;;;;;;5038088;28;20107;-54
2023/10/23 10:37:32;;;;;;;4.20;1.55;;;16.30;99.90;;;;;;5021139;28;20036;-55
2023/10/23 10:39:58;;;;;;;3.78;1.20;;;16.20;99.90;;;;;;5039138;28;20033;-55
2023/10/23 10:42:28;;;;;;;5.32;1.38;;;16.20;99.90;;;;;;5038838;28;20083;-55
2023/10/23 10:45:17;;;;;;;3.75;1.27;;;16.10;99.90;;;;;;5038404;28;20038;-54
2023/10/23 10:47:52;;;;;;;;;;;16.00;99.90;;;;;;5039042;28;20109;-55
2023/10/23 10:50:36;;;;;;;6.38;1.27;;;15.90;99.90;;;;;;5020909;28;20456;-54
2023/10/23 10:53:03;;;;;;;4.18;1.13;;;15.80;99.90;;;;;;5020414;28;20112;-55
2023/10/23 10:55:30;;;;;;;5.38;1.52;;;15.90;99.90;;;;;;5037431;28;20029;-54
2023/10/23 10:57:56;;;;;;;2.50;0.95;;;15.90;99.90;;;;;;5038995;28;20033;-52
2023/10/23 11:00:22;;;;;;;2.80;1.20;;;15.90;99.90;;;;;;5020659;28;20375;-55
2023/10/23 11:02:49;;;;;;;4.55;1.73;;;16.00;99.90;;;;;;5004312;28;20033;-55
2023/10/23 11:05:14;;;;;;;3.13;1.30;;;16.20;99.90;;;;;;5038032;28;20041;-54
2023/10/23 11:07:41;;;;;;;3.55;1.05;;;16.40;99.90;;;;;;5038508;28;20029;-55
2023/10/23 11:10:08;;;;;;;4.07;1.58;;;16.40;99.90;;;;;;5038165;28;20037;-55
2023/10/23 11:12:34;;;;;;;3.38;1.35;;;16.40;99.90;;;;;;5038245;28;20454;-54
2023/10/23 11:14:59;;;;;;;4.80;1.55;;;16.40;99.90;;;;;;5038433;28;20127;-54
2023/10/23 11:17:25;;;;;;;2.88;1.30;;;16.40;99.90;;;;;;5020959;28;20576;-54
2023/10/23 11:19:50;;;;;;;8.15;1.77;;;16.40;99.90;;;;;;5037853;28;20093;-53
2023/10/23 11:22:18;;;;;;;2.72;1.40;;;16.30;99.90;;;;;;5038166;28;20068;-51
2023/10/23 11:24:44;;;;;;;3.10;1.27;;;16.30;99.90;;;;;;5038369;28;20076;-54
2023/10/23 11:27:10;;;;;;;3.17;1.60;;;16.30;99.90;;;;;;5021169;28;20045;-51
2023/10/23 11:29:48;;;;;;;5.43;1.52;;;16.10;99.90;;;;;;5037901;28;20037;-53
2023/10/23 11:32:15;;;;;;;5.80;1.25;;;16.10;99.90;;;;;;5038217;28;20061;-55
2023/10/23 11:34:42;;;;;;;8.07;2.20;;;16.10;99.90;;;;;;5037864;28;20029;-55
2023/10/23 11:37:09;;;;;;;3.85;1.50;;;16.10;99.90;;;;;;5037470;28;20029;-55
2023/10/23 11:39:36;;;;;;;2.30;1.17;;;16.20;99.90;;;;;;5037283;28;20151;-55
2023/10/23 11:42:03;;;;;;;3.40;1.38;;;16.10;99.90;;;;;;5037187;28;20156;-53
2023/10/23 11:44:31;;;;;;;2.75;1.27;;;16.10;99.90;;;;;;5037883;28;20501;-55
2023/10/23 11:46:58;;;;;;;3.58;1.38;;;16.10;99.90;;;;;;5037506;28;20017;-55
2023/10/23 11:49:24;;;;;;;2.38;1.33;;;16.10;99.90;;;;;;5020058;28;20513;-53
2023/10/23 11:51:51;;;;;;;2.83;1.50;;;16.10;99.90;;;;;;5037610;28;20033;-55
2023/10/23 11:54:17;;;;;;;3.97;1.80;;;16.00;99.90;;;;;;5037161;28;20032;-52
2023/10/23 11:56:43;;;;;;;3.53;1.70;;;15.90;99.90;;;;;;5037387;28;20454;-55
2023/10/23 11:59:18;;;;;;;4.43;1.90;;;15.90;99.90;;;;;;5037229;28;20025;-55
2023/10/23 12:01:44;;;;;;;4.68;1.80;;;15.90;99.90;;;;;;5037240;28;20401;-53
2023/10/23 12:04:10;;;;;;;3.83;1.80;;;15.70;99.90;;;;;;5019139;28;20036;-55
2023/10/23 12:06:37;;;;;;;3.53;1.90;;;15.70;99.90;;;;;;5037345;28;20025;-55
2023/10/23 12:09:04;;;;;;;5.93;2.10;;;15.60;99.90;;;;;;5019248;28;20100;-54
2023/10/23 12:11:30;;;;;;;4.10;1.70;;;15.50;99.90;;;;;;5036177;28;20393;-55
2023/10/23 12:13:57;;;;;;;4.43;2.00;;;15.50;99.90;;;;;;5001490;28;20101;-55
2023/10/23 12:16:22;;;;;;;2.90;1.77;;;15.40;99.90;;;;;;5035935;28;20120;-54
2023/10/23 12:18:48;;;;;;;4.72;2.17;;;15.30;99.90;;;;;;5035637;28;20116;-53
2023/10/23 12:21:14;;;;;;;3.40;1.80;;;15.30;99.90;;;;;;5036150;28;20052;-54
2023/10/23 12:23:40;;;;;;;5.47;1.80;;;15.20;99.90;;;;;;5035939;28;20079;-53
2023/10/23 12:26:06;;;;;;;3.88;1.80;;;15.20;99.90;;;;;;5035670;28;20477;-55
2023/10/23 12:28:32;;;;;;;3.35;1.67;;;15.20;99.90;;;;;;5017604;28;20033;-55
2023/10/23 12:30:58;;;;;;;2.97;1.70;;;15.20;99.90;;;;;;5018191;28;20053;-57
2023/10/23 12:33:24;;;;;;;3.17;1.67;;;15.20;99.90;;;;;;5036045;28;20047;-53
2023/10/23 12:35:50;;;;;;;9.57;2.60;;;15.20;99.90;;;;;;5035202;28;20029;-52
2023/10/23 12:38:16;;;;;;;7.28;2.47;;;15.20;99.90;;;;;;5034906;28;20025;-55
2023/10/23 12:40:43;;;;;;;2.83;1.50;;;15.30;99.90;;;;;;5036157;28;20029;-53
2023/10/23 12:43:10;;;;;;;5.25;1.88;;;15.40;99.90;;;;;;5025780;28;20292;-53
2023/10/23 12:45:35;;;;;;;2.80;1.20;;;15.30;99.90;;;;;;5044761;28;20044;-52
2023/10/23 12:48:01;;;;;;;3.15;1.42;;;15.30;99.90;;;;;;5026358;28;20037;-50
2023/10/23 12:50:27;;;;;;;4.00;1.17;;;15.20;99.90;;;;;;5044384;28;20029;-53